sensor_id;sensor_type;location;lat;lon;timestamp;temperature;humidity
59977;DHT22;45837;51.076;3.578;2022-08-18T00:00:06;23.10;65.40
59977;DHT22;45837;51.076;3.578;2022-08-18T00:02:40;23.20;65.30
59977;DHT22;45837;51.076;3.578;2022-08-18T00:05:12;23.20;65.40
59977;DHT22;45837;51.076;3.578;2022-08-18T00:07:38;23.20;65.10
59977;DHT22;45837;51.076;3.578;2022-08-18T00:10:05;23.20;65.20
59977;DHT22;45837;51.076;3.578;2022-08-18T00:12:39;23.20;65.30
59977;DHT22;45837;51.076;3.578;2022-08-18T00:15:10;23.20;65.30
59977;DHT22;45837;51.076;3.578;2022-08-18T00:17:39;23.00;65.10
59977;DHT22;45837;51.076;3.578;2022-08-18T00:20:09;23.20;65.00
59977;DHT22;45837;51.076;3.578;2022-08-18T00:22:36;23.30;64.90
59977;DHT22;45837;51.076;3.578;2022-08-18T00:25:05;23.30;64.80
59977;DHT22;45837;51.076;3.578;2022-08-18T00:27:31;23.30;64.90
59977;DHT22;45837;51.076;3.578;2022-08-18T00:30:02;23.30;65.00
59977;DHT22;45837;51.076;3.578;2022-08-18T00:32:31;23.20;64.80
59977;DHT22;45837;51.076;3.578;2022-08-18T00:37:33;23.10;65.10
59977;DHT22;45837;51.076;3.578;2022-08-18T00:40:02;23.00;64.80
59977;DHT22;45837;51.076;3.578;2022-08-18T00:42:28;22.90;65.60
59977;DHT22;45837;51.076;3.578;2022-08-18T00:44:55;22.80;64.90
59977;DHT22;45837;51.076;3.578;2022-08-18T00:47:21;22.80;64.70
59977;DHT22;45837;51.076;3.578;2022-08-18T00:49:50;22.80;64.70
59977;DHT22;45837;51.076;3.578;2022-08-18T00:52:18;22.80;64.50
59977;DHT22;45837;51.076;3.578;2022-08-18T00:54:48;22.80;64.60
59977;DHT22;45837;51.076;3.578;2022-08-18T00:57:18;22.80;64.60
59977;DHT22;45837;51.076;3.578;2022-08-18T00:59:58;22.80;64.60
59977;DHT22;45837;51.076;3.578;2022-08-18T01:02:39;22.80;64.60
59977;DHT22;45837;51.076;3.578;2022-08-18T01:05:56;22.80;65.10
59977;DHT22;45837;51.076;3.578;2022-08-18T01:08:11;22.70;64.90
59977;DHT22;45837;51.076;3.578;2022-08-18T01:10:48;22.70;65.10
59977;DHT22;45837;51.076;3.578;2022-08-18T01:13:15;22.70;65.00
59977;DHT22;45837;51.076;3.578;2022-08-18T01:15:41;22.70;64.80
59977;DHT22;45837;51.076;3.578;2022-08-18T01:18:10;22.70;65.20
59977;DHT22;45837;51.076;3.578;2022-08-18T01:21:03;22.70;65.10
59977;DHT22;45837;51.076;3.578;2022-08-18T01:23:51;22.70;65.20
59977;DHT22;45837;51.076;3.578;2022-08-18T01:26:19;22.70;65.30
59977;DHT22;45837;51.076;3.578;2022-08-18T01:28:46;22.70;65.30
59977;DHT22;45837;51.076;3.578;2022-08-18T01:33:55;22.70;65.20
59977;DHT22;45837;51.076;3.578;2022-08-18T01:36:22;22.60;65.00
59977;DHT22;45837;51.076;3.578;2022-08-18T01:38:51;22.60;64.90
59977;DHT22;45837;51.076;3.578;2022-08-18T01:41:18;22.60;64.80
59977;DHT22;45837;51.076;3.578;2022-08-18T01:43:45;22.60;64.50
59977;DHT22;45837;51.076;3.578;2022-08-18T01:46:11;22.60;64.20
59977;DHT22;45837;51.076;3.578;2022-08-18T01:48:37;22.60;63.90
59977;DHT22;45837;51.076;3.578;2022-08-18T01:51:06;22.50;63.80
59977;DHT22;45837;51.076;3.578;2022-08-18T01:53:33;22.50;64.40
59977;DHT22;45837;51.076;3.578;2022-08-18T01:55:59;22.40;63.70
59977;DHT22;45837;51.076;3.578;2022-08-18T01:58:25;22.40;64.10
59977;DHT22;45837;51.076;3.578;2022-08-18T02:00:54;22.30;64.50
59977;DHT22;45837;51.076;3.578;2022-08-18T02:03:30;22.30;64.80
59977;DHT22;45837;51.076;3.578;2022-08-18T02:06:03;22.30;64.70
59977;DHT22;45837;51.076;3.578;2022-08-18T02:08:29;22.30;64.70
59977;DHT22;45837;51.076;3.578;2022-08-18T02:10:56;22.30;64.40
59977;DHT22;45837;51.076;3.578;2022-08-18T02:13:24;22.20;64.20
59977;DHT22;45837;51.076;3.578;2022-08-18T02:15:50;22.30;64.10
59977;DHT22;45837;51.076;3.578;2022-08-18T02:18:20;22.30;64.00
59977;DHT22;45837;51.076;3.578;2022-08-18T02:20:46;22.20;63.50
59977;DHT22;45837;51.076;3.578;2022-08-18T02:23:13;22.20;63.50
59977;DHT22;45837;51.076;3.578;2022-08-18T02:25:41;22.20;63.50
59977;DHT22;45837;51.076;3.578;2022-08-18T02:28:07;22.20;63.50
59977;DHT22;45837;51.076;3.578;2022-08-18T02:30:34;22.20;63.70
59977;DHT22;45837;51.076;3.578;2022-08-18T02:33:05;22.20;63.70
59977;DHT22;45837;51.076;3.578;2022-08-18T02:35:32;22.10;63.40
59977;DHT22;45837;51.076;3.578;2022-08-18T02:38:00;22.10;63.30
59977;DHT22;45837;51.076;3.578;2022-08-18T02:40:26;22.10;63.20
59977;DHT22;45837;51.076;3.578;2022-08-18T02:43:04;22.10;63.50
59977;DHT22;45837;51.076;3.578;2022-08-18T02:45:32;22.00;63.40
59977;DHT22;45837;51.076;3.578;2022-08-18T02:47:58;22.00;63.90
59977;DHT22;45837;51.076;3.578;2022-08-18T02:50:24;22.00;63.60
59977;DHT22;45837;51.076;3.578;2022-08-18T02:52:50;21.90;64.00
59977;DHT22;45837;51.076;3.578;2022-08-18T02:55:16;21.80;64.10
59977;DHT22;45837;51.076;3.578;2022-08-18T02:57:44;21.80;64.10
59977;DHT22;45837;51.076;3.578;2022-08-18T03:00:12;21.90;64.00
59977;DHT22;45837;51.076;3.578;2022-08-18T03:02:44;21.90;64.00
59977;DHT22;45837;51.076;3.578;2022-08-18T03:05:09;21.80;64.10
59977;DHT22;45837;51.076;3.578;2022-08-18T03:07:35;21.90;64.10
59977;DHT22;45837;51.076;3.578;2022-08-18T03:10:01;21.80;64.00
59977;DHT22;45837;51.076;3.578;2022-08-18T03:12:27;21.80;64.00
59977;DHT22;45837;51.076;3.578;2022-08-18T03:14:55;21.80;64.30
59977;DHT22;45837;51.076;3.578;2022-08-18T03:17:21;21.80;64.00
59977;DHT22;45837;51.076;3.578;2022-08-18T03:19:49;21.90;64.30
59977;DHT22;45837;51.076;3.578;2022-08-18T03:22:15;21.80;64.40
59977;DHT22;45837;51.076;3.578;2022-08-18T03:24:41;21.80;64.20
59977;DHT22;45837;51.076;3.578;2022-08-18T03:27:07;21.90;64.20
59977;DHT22;45837;51.076;3.578;2022-08-18T03:29:36;21.90;64.20
59977;DHT22;45837;51.076;3.578;2022-08-18T03:32:03;21.90;64.20
59977;DHT22;45837;51.076;3.578;2022-08-18T03:34:30;21.90;64.20
59977;DHT22;45837;51.076;3.578;2022-08-18T03:36:57;21.90;64.30
59977;DHT22;45837;51.076;3.578;2022-08-18T03:39:23;21.90;65.10
59977;DHT22;45837;51.076;3.578;2022-08-18T03:41:51;21.90;64.60
59977;DHT22;45837;51.076;3.578;2022-08-18T03:44:21;21.80;64.70
59977;DHT22;45837;51.076;3.578;2022-08-18T03:46:48;21.80;65.00
59977;DHT22;45837;51.076;3.578;2022-08-18T03:49:18;21.70;65.10
59977;DHT22;45837;51.076;3.578;2022-08-18T03:51:45;21.70;65.10
59977;DHT22;45837;51.076;3.578;2022-08-18T03:54:12;21.80;65.20
59977;DHT22;45837;51.076;3.578;2022-08-18T03:56:44;21.80;65.10
59977;DHT22;45837;51.076;3.578;2022-08-18T03:59:13;21.80;65.00
59977;DHT22;45837;51.076;3.578;2022-08-18T04:01:41;21.80;65.00
59977;DHT22;45837;51.076;3.578;2022-08-18T04:04:10;21.70;65.00
59977;DHT22;45837;51.076;3.578;2022-08-18T04:06:43;21.70;65.00
59977;DHT22;45837;51.076;3.578;2022-08-18T04:09:11;21.80;65.00
59977;DHT22;45837;51.076;3.578;2022-08-18T04:11:39;21.80;65.00
59977;DHT22;45837;51.076;3.578;2022-08-18T04:14:08;21.80;65.00
59977;DHT22;45837;51.076;3.578;2022-08-18T04:16:35;21.80;64.90
59977;DHT22;45837;51.076;3.578;2022-08-18T04:19:03;21.80;64.80
59977;DHT22;45837;51.076;3.578;2022-08-18T04:21:35;21.70;64.90
59977;DHT22;45837;51.076;3.578;2022-08-18T04:24:03;21.80;64.80
59977;DHT22;45837;51.076;3.578;2022-08-18T04:26:44;21.70;64.80
59977;DHT22;45837;51.076;3.578;2022-08-18T04:29:13;21.70;64.90
59977;DHT22;45837;51.076;3.578;2022-08-18T04:31:39;21.70;64.80
59977;DHT22;45837;51.076;3.578;2022-08-18T04:34:05;21.70;64.70
59977;DHT22;45837;51.076;3.578;2022-08-18T04:36:32;21.80;64.40
59977;DHT22;45837;51.076;3.578;2022-08-18T04:39:02;21.90;64.30
59977;DHT22;45837;51.076;3.578;2022-08-18T04:41:29;21.80;64.40
59977;DHT22;45837;51.076;3.578;2022-08-18T04:44:02;21.70;64.40
59977;DHT22;45837;51.076;3.578;2022-08-18T04:46:29;21.80;64.60
59977;DHT22;45837;51.076;3.578;2022-08-18T04:48:57;21.70;64.50
59977;DHT22;45837;51.076;3.578;2022-08-18T04:51:26;21.60;64.60
59977;DHT22;45837;51.076;3.578;2022-08-18T04:53:56;21.50;64.80
59977;DHT22;45837;51.076;3.578;2022-08-18T04:56:34;21.40;64.90
59977;DHT22;45837;51.076;3.578;2022-08-18T04:59:04;21.50;64.90
59977;DHT22;45837;51.076;3.578;2022-08-18T05:01:39;21.50;64.60
59977;DHT22;45837;51.076;3.578;2022-08-18T05:04:06;21.50;64.50
59977;DHT22;45837;51.076;3.578;2022-08-18T05:06:32;21.50;64.80
59977;DHT22;45837;51.076;3.578;2022-08-18T05:09:03;21.50;65.10
59977;DHT22;45837;51.076;3.578;2022-08-18T05:11:35;21.00;64.60
59977;DHT22;45837;51.076;3.578;2022-08-18T05:14:04;21.50;65.00
59977;DHT22;45837;51.076;3.578;2022-08-18T05:16:36;21.50;65.10
59977;DHT22;45837;51.076;3.578;2022-08-18T05:19:04;21.50;65.10
59977;DHT22;45837;51.076;3.578;2022-08-18T05:21:30;21.50;64.80
59977;DHT22;45837;51.076;3.578;2022-08-18T05:23:57;21.50;64.80
59977;DHT22;45837;51.076;3.578;2022-08-18T05:26:28;21.50;64.80
59977;DHT22;45837;51.076;3.578;2022-08-18T05:28:54;21.50;64.70
59977;DHT22;45837;51.076;3.578;2022-08-18T05:31:22;21.50;65.00
59977;DHT22;45837;51.076;3.578;2022-08-18T05:33:49;21.50;65.10
59977;DHT22;45837;51.076;3.578;2022-08-18T05:36:24;21.60;65.30
59977;DHT22;45837;51.076;3.578;2022-08-18T05:39:45;21.60;65.50
59977;DHT22;45837;51.076;3.578;2022-08-18T05:44:18;21.70;66.10
59977;DHT22;45837;51.076;3.578;2022-08-18T05:46:53;21.80;65.90
59977;DHT22;45837;51.076;3.578;2022-08-18T05:49:20;21.90;65.70
59977;DHT22;45837;51.076;3.578;2022-08-18T05:51:49;21.90;65.70
59977;DHT22;45837;51.076;3.578;2022-08-18T05:54:19;21.90;65.70
59977;DHT22;45837;51.076;3.578;2022-08-18T05:57:17;22.00;65.60
59977;DHT22;45837;51.076;3.578;2022-08-18T05:59:45;22.00;65.50
59977;DHT22;45837;51.076;3.578;2022-08-18T06:02:17;22.00;65.60
59977;DHT22;45837;51.076;3.578;2022-08-18T06:04:57;22.00;65.70
59977;DHT22;45837;51.076;3.578;2022-08-18T06:07:43;22.00;65.70
59977;DHT22;45837;51.076;3.578;2022-08-18T06:10:19;22.00;65.80
59977;DHT22;45837;51.076;3.578;2022-08-18T06:12:46;22.10;66.10
59977;DHT22;45837;51.076;3.578;2022-08-18T06:26:20;22.10;66.50
59977;DHT22;45837;51.076;3.578;2022-08-18T06:29:20;22.10;66.80
59977;DHT22;45837;51.076;3.578;2022-08-18T06:37:09;22.10;68.40
59977;DHT22;45837;51.076;3.578;2022-08-18T06:39:45;22.20;67.90
59977;DHT22;45837;51.076;3.578;2022-08-18T06:42:15;22.20;68.30
59977;DHT22;45837;51.076;3.578;2022-08-18T06:44:45;22.20;68.40
59977;DHT22;45837;51.076;3.578;2022-08-18T06:47:42;22.20;68.60
59977;DHT22;45837;51.076;3.578;2022-08-18T06:53:09;22.20;69.10
59977;DHT22;45837;51.076;3.578;2022-08-18T06:55:43;22.20;69.20
59977;DHT22;45837;51.076;3.578;2022-08-18T07:00:57;22.30;69.80
59977;DHT22;45837;51.076;3.578;2022-08-18T07:03:49;22.30;69.90
59977;DHT22;45837;51.076;3.578;2022-08-18T07:08:50;22.30;70.60
59977;DHT22;45837;51.076;3.578;2022-08-18T07:11:21;22.30;70.40
59977;DHT22;45837;51.076;3.578;2022-08-18T07:13:49;22.30;70.50
59977;DHT22;45837;51.076;3.578;2022-08-18T07:18:48;22.40;70.90
59977;DHT22;45837;51.076;3.578;2022-08-18T07:21:29;22.50;70.00
59977;DHT22;45837;51.076;3.578;2022-08-18T07:24:08;22.60;69.90
59977;DHT22;45837;51.076;3.578;2022-08-18T07:29:34;22.70;69.30
59977;DHT22;45837;51.076;3.578;2022-08-18T07:32:17;22.90;69.40
59977;DHT22;45837;51.076;3.578;2022-08-18T07:34:51;22.90;69.40
59977;DHT22;45837;51.076;3.578;2022-08-18T07:37:31;22.90;69.20
59977;DHT22;45837;51.076;3.578;2022-08-18T07:40:23;22.90;69.10
59977;DHT22;45837;51.076;3.578;2022-08-18T07:43:00;23.00;69.40
59977;DHT22;45837;51.076;3.578;2022-08-18T07:45:44;23.00;69.50
59977;DHT22;45837;51.076;3.578;2022-08-18T07:48:26;23.10;69.80
59977;DHT22;45837;51.076;3.578;2022-08-18T07:51:12;23.10;70.10
59977;DHT22;45837;51.076;3.578;2022-08-18T07:54:00;23.10;70.00
59977;DHT22;45837;51.076;3.578;2022-08-18T08:02:27;23.20;71.00
59977;DHT22;45837;51.076;3.578;2022-08-18T08:05:24;23.20;71.40
59977;DHT22;45837;51.076;3.578;2022-08-18T08:08:04;23.20;71.50
59977;DHT22;45837;51.076;3.578;2022-08-18T08:16:45;23.30;72.00
59977;DHT22;45837;51.076;3.578;2022-08-18T08:22:23;23.50;71.00
59977;DHT22;45837;51.076;3.578;2022-08-18T08:25:44;23.40;70.80
59977;DHT22;45837;51.076;3.578;2022-08-18T08:33:47;23.60;71.20
59977;DHT22;45837;51.076;3.578;2022-08-18T08:36:27;23.60;70.70
59977;DHT22;45837;51.076;3.578;2022-08-18T08:41:52;23.70;70.30
59977;DHT22;45837;51.076;3.578;2022-08-18T08:47:04;23.80;69.40
59977;DHT22;45837;51.076;3.578;2022-08-18T08:49:43;23.80;69.00
59977;DHT22;45837;51.076;3.578;2022-08-18T08:52:29;23.90;68.80
59977;DHT22;45837;51.076;3.578;2022-08-18T08:55:15;23.90;68.60
59977;DHT22;45837;51.076;3.578;2022-08-18T09:00:32;23.90;68.30
59977;DHT22;45837;51.076;3.578;2022-08-18T09:03:29;23.80;67.80
59977;DHT22;45837;51.076;3.578;2022-08-18T09:06:28;23.90;68.20
59977;DHT22;45837;51.076;3.578;2022-08-18T09:20:08;24.30;68.00
59977;DHT22;45837;51.076;3.578;2022-08-18T09:22:51;24.00;67.50
59977;DHT22;45837;51.076;3.578;2022-08-18T09:28:11;24.00;66.80
59977;DHT22;45837;51.076;3.578;2022-08-18T09:36:18;24.10;66.00
59977;DHT22;45837;51.076;3.578;2022-08-18T09:42:05;24.10;65.60
59977;DHT22;45837;51.076;3.578;2022-08-18T09:49:53;24.00;65.50
59977;DHT22;45837;51.076;3.578;2022-08-18T09:58:17;24.20;65.20
59977;DHT22;45837;51.076;3.578;2022-08-18T10:01:18;24.20;65.30
59977;DHT22;45837;51.076;3.578;2022-08-18T10:06:43;24.20;65.40
59977;DHT22;45837;51.076;3.578;2022-08-18T10:15:19;24.20;65.00
59977;DHT22;45837;51.076;3.578;2022-08-18T10:23:56;24.20;64.80
59977;DHT22;45837;51.076;3.578;2022-08-18T10:29:01;24.20;64.90
59977;DHT22;45837;51.076;3.578;2022-08-18T10:32:15;24.20;64.70
59977;DHT22;45837;51.076;3.578;2022-08-18T10:34:47;24.20;64.80
59977;DHT22;45837;51.076;3.578;2022-08-18T10:39:56;24.30;64.50
59977;DHT22;45837;51.076;3.578;2022-08-18T10:42:51;24.30;64.40
59977;DHT22;45837;51.076;3.578;2022-08-18T10:45:24;24.40;64.40
59977;DHT22;45837;51.076;3.578;2022-08-18T10:50:50;24.30;63.90
59977;DHT22;45837;51.076;3.578;2022-08-18T10:56:22;24.40;63.60
59977;DHT22;45837;51.076;3.578;2022-08-18T11:01:45;24.40;63.60
59977;DHT22;45837;51.076;3.578;2022-08-18T11:04:29;24.40;63.50
59977;DHT22;45837;51.076;3.578;2022-08-18T11:07:07;24.40;63.50
59977;DHT22;45837;51.076;3.578;2022-08-18T11:09:38;24.40;63.40
59977;DHT22;45837;51.076;3.578;2022-08-18T11:12:11;24.40;63.50
59977;DHT22;45837;51.076;3.578;2022-08-18T11:15:05;24.40;63.50
59977;DHT22;45837;51.076;3.578;2022-08-18T11:20:22;24.40;63.40
59977;DHT22;45837;51.076;3.578;2022-08-18T11:23:01;24.40;62.90
59977;DHT22;45837;51.076;3.578;2022-08-18T11:25:35;24.40;62.60
59977;DHT22;45837;51.076;3.578;2022-08-18T11:28:21;24.50;63.00
59977;DHT22;45837;51.076;3.578;2022-08-18T11:30:51;24.50;62.90
59977;DHT22;45837;51.076;3.578;2022-08-18T11:33:19;24.60;62.70
59977;DHT22;45837;51.076;3.578;2022-08-18T11:35:53;24.50;62.50
59977;DHT22;45837;51.076;3.578;2022-08-18T11:38:22;24.60;62.40
59977;DHT22;45837;51.076;3.578;2022-08-18T11:40:51;24.60;62.40
59977;DHT22;45837;51.076;3.578;2022-08-18T11:43:27;24.60;62.00
59977;DHT22;45837;51.076;3.578;2022-08-18T11:46:00;24.60;61.90
59977;DHT22;45837;51.076;3.578;2022-08-18T11:48:37;24.60;61.50
59977;DHT22;45837;51.076;3.578;2022-08-18T11:56:41;24.60;60.80
59977;DHT22;45837;51.076;3.578;2022-08-18T12:01:52;24.60;61.10
59977;DHT22;45837;51.076;3.578;2022-08-18T12:04:30;24.60;60.80
59977;DHT22;45837;51.076;3.578;2022-08-18T12:07:12;24.60;60.40
59977;DHT22;45837;51.076;3.578;2022-08-18T12:10:23;24.60;60.60
59977;DHT22;45837;51.076;3.578;2022-08-18T12:12:51;24.60;60.40
59977;DHT22;45837;51.076;3.578;2022-08-18T12:17:45;24.60;61.10
59977;DHT22;45837;51.076;3.578;2022-08-18T12:20:13;24.60;60.60
59977;DHT22;45837;51.076;3.578;2022-08-18T12:22:41;24.60;60.60
59977;DHT22;45837;51.076;3.578;2022-08-18T12:25:12;24.60;60.80
59977;DHT22;45837;51.076;3.578;2022-08-18T12:27:39;24.60;60.40
59977;DHT22;45837;51.076;3.578;2022-08-18T12:30:07;24.60;60.30
59977;DHT22;45837;51.076;3.578;2022-08-18T12:32:35;24.60;60.00
59977;DHT22;45837;51.076;3.578;2022-08-18T12:35:02;24.70;60.10
59977;DHT22;45837;51.076;3.578;2022-08-18T12:37:28;24.70;60.00
59977;DHT22;45837;51.076;3.578;2022-08-18T12:39:56;24.70;59.90
59977;DHT22;45837;51.076;3.578;2022-08-18T12:42:23;24.70;59.80
59977;DHT22;45837;51.076;3.578;2022-08-18T12:44:48;24.70;59.80
59977;DHT22;45837;51.076;3.578;2022-08-18T12:47:24;24.70;59.70
59977;DHT22;45837;51.076;3.578;2022-08-18T12:49:50;24.70;59.60
59977;DHT22;45837;51.076;3.578;2022-08-18T12:52:17;24.70;59.40
59977;DHT22;45837;51.076;3.578;2022-08-18T12:54:44;24.70;59.20
59977;DHT22;45837;51.076;3.578;2022-08-18T12:57:27;24.70;59.20
59977;DHT22;45837;51.076;3.578;2022-08-18T12:59:53;24.70;59.10
59977;DHT22;45837;51.076;3.578;2022-08-18T13:02:21;24.70;59.20
59977;DHT22;45837;51.076;3.578;2022-08-18T13:04:47;24.70;59.00
59977;DHT22;45837;51.076;3.578;2022-08-18T13:07:13;24.70;59.00
59977;DHT22;45837;51.076;3.578;2022-08-18T13:09:44;24.70;58.90
59977;DHT22;45837;51.076;3.578;2022-08-18T13:12:13;24.30;58.70
59977;DHT22;45837;51.076;3.578;2022-08-18T13:14:39;24.70;59.10
59977;DHT22;45837;51.076;3.578;2022-08-18T13:17:05;24.70;59.00
59977;DHT22;45837;51.076;3.578;2022-08-18T13:19:30;24.70;59.00
59977;DHT22;45837;51.076;3.578;2022-08-18T13:21:57;24.70;59.10
59977;DHT22;45837;51.076;3.578;2022-08-18T13:24:23;24.80;59.10
59977;DHT22;45837;51.076;3.578;2022-08-18T13:26:49;24.70;59.10
59977;DHT22;45837;51.076;3.578;2022-08-18T13:29:16;24.80;59.00
59977;DHT22;45837;51.076;3.578;2022-08-18T13:31:42;24.80;58.90
59977;DHT22;45837;51.076;3.578;2022-08-18T13:34:09;24.80;58.90
59977;DHT22;45837;51.076;3.578;2022-08-18T13:36:35;24.80;58.80
59977;DHT22;45837;51.076;3.578;2022-08-18T13:39:16;24.80;58.70
59977;DHT22;45837;51.076;3.578;2022-08-18T13:41:44;24.80;58.50
59977;DHT22;45837;51.076;3.578;2022-08-18T13:44:11;24.80;58.60
59977;DHT22;45837;51.076;3.578;2022-08-18T13:46:39;24.80;58.70
59977;DHT22;45837;51.076;3.578;2022-08-18T13:49:18;24.80;58.80
59977;DHT22;45837;51.076;3.578;2022-08-18T13:51:48;24.80;59.10
59977;DHT22;45837;51.076;3.578;2022-08-18T13:54:24;24.50;58.80
59977;DHT22;45837;51.076;3.578;2022-08-18T13:56:53;24.80;58.90
59977;DHT22;45837;51.076;3.578;2022-08-18T13:59:22;24.80;59.20
59977;DHT22;45837;51.076;3.578;2022-08-18T14:01:49;24.80;59.10
59977;DHT22;45837;51.076;3.578;2022-08-18T14:04:16;24.80;59.30
59977;DHT22;45837;51.076;3.578;2022-08-18T14:06:42;24.80;59.30
59977;DHT22;45837;51.076;3.578;2022-08-18T14:09:11;24.80;59.30
59977;DHT22;45837;51.076;3.578;2022-08-18T14:11:38;24.80;59.10
59977;DHT22;45837;51.076;3.578;2022-08-18T14:14:04;24.80;59.20
59977;DHT22;45837;51.076;3.578;2022-08-18T14:16:31;24.80;59.10
59977;DHT22;45837;51.076;3.578;2022-08-18T14:19:00;24.80;59.30
59977;DHT22;45837;51.076;3.578;2022-08-18T14:21:47;24.70;59.10
59977;DHT22;45837;51.076;3.578;2022-08-18T14:24:32;24.80;59.30
59977;DHT22;45837;51.076;3.578;2022-08-18T14:27:18;24.80;59.40
59977;DHT22;45837;51.076;3.578;2022-08-18T14:29:47;24.80;59.30
59977;DHT22;45837;51.076;3.578;2022-08-18T14:32:14;24.80;59.20
59977;DHT22;45837;51.076;3.578;2022-08-18T14:34:49;24.80;59.40
59977;DHT22;45837;51.076;3.578;2022-08-18T14:37:17;24.80;59.30
59977;DHT22;45837;51.076;3.578;2022-08-18T14:39:43;24.80;59.30
59977;DHT22;45837;51.076;3.578;2022-08-18T14:42:11;24.80;59.10
59977;DHT22;45837;51.076;3.578;2022-08-18T14:44:38;24.80;59.10
59977;DHT22;45837;51.076;3.578;2022-08-18T14:47:04;24.80;59.20
59977;DHT22;45837;51.076;3.578;2022-08-18T14:49:30;24.80;59.40
59977;DHT22;45837;51.076;3.578;2022-08-18T14:52:02;24.90;59.30
59977;DHT22;45837;51.076;3.578;2022-08-18T14:54:29;24.70;59.30
59977;DHT22;45837;51.076;3.578;2022-08-18T14:56:56;24.90;59.50
59977;DHT22;45837;51.076;3.578;2022-08-18T14:59:22;24.90;59.40
59977;DHT22;45837;51.076;3.578;2022-08-18T15:01:50;24.90;59.70
59977;DHT22;45837;51.076;3.578;2022-08-18T15:04:15;25.00;59.50
59977;DHT22;45837;51.076;3.578;2022-08-18T15:06:41;24.90;59.50
59977;DHT22;45837;51.076;3.578;2022-08-18T15:09:07;24.90;59.60
59977;DHT22;45837;51.076;3.578;2022-08-18T15:11:34;24.90;59.60
59977;DHT22;45837;51.076;3.578;2022-08-18T15:14:02;24.90;59.80
59977;DHT22;45837;51.076;3.578;2022-08-18T15:16:28;24.90;59.70
59977;DHT22;45837;51.076;3.578;2022-08-18T15:18:59;25.00;59.80
59977;DHT22;45837;51.076;3.578;2022-08-18T15:21:26;24.90;59.80
59977;DHT22;45837;51.076;3.578;2022-08-18T15:24:10;24.90;59.90
59977;DHT22;45837;51.076;3.578;2022-08-18T15:26:56;24.90;59.90
59977;DHT22;45837;51.076;3.578;2022-08-18T15:29:22;24.90;59.90
59977;DHT22;45837;51.076;3.578;2022-08-18T15:31:49;24.90;59.80
59977;DHT22;45837;51.076;3.578;2022-08-18T15:34:16;24.90;59.80
59977;DHT22;45837;51.076;3.578;2022-08-18T15:36:42;24.90;59.70
59977;DHT22;45837;51.076;3.578;2022-08-18T15:39:08;24.90;59.70
59977;DHT22;45837;51.076;3.578;2022-08-18T15:41:40;24.90;59.70
59977;DHT22;45837;51.076;3.578;2022-08-18T15:44:20;24.90;59.80
59977;DHT22;45837;51.076;3.578;2022-08-18T15:46:47;24.90;59.70
59977;DHT22;45837;51.076;3.578;2022-08-18T15:49:13;25.00;59.70
59977;DHT22;45837;51.076;3.578;2022-08-18T15:51:40;24.90;59.70
59977;DHT22;45837;51.076;3.578;2022-08-18T15:54:12;24.90;59.80
59977;DHT22;45837;51.076;3.578;2022-08-18T15:56:41;24.90;59.70
59977;DHT22;45837;51.076;3.578;2022-08-18T15:59:07;25.00;59.60
59977;DHT22;45837;51.076;3.578;2022-08-18T16:01:35;25.00;59.50
59977;DHT22;45837;51.076;3.578;2022-08-18T16:04:05;25.00;59.30
59977;DHT22;45837;51.076;3.578;2022-08-18T16:06:37;25.00;59.40
59977;DHT22;45837;51.076;3.578;2022-08-18T16:09:05;25.00;59.40
59977;DHT22;45837;51.076;3.578;2022-08-18T16:11:34;25.00;59.40
59977;DHT22;45837;51.076;3.578;2022-08-18T16:14:00;25.10;59.50
59977;DHT22;45837;51.076;3.578;2022-08-18T16:16:26;25.10;59.40
59977;DHT22;45837;51.076;3.578;2022-08-18T16:18:52;25.10;59.40
59977;DHT22;45837;51.076;3.578;2022-08-18T16:21:20;25.10;59.30
59977;DHT22;45837;51.076;3.578;2022-08-18T16:23:53;25.10;59.20
59977;DHT22;45837;51.076;3.578;2022-08-18T16:26:21;25.20;59.20
59977;DHT22;45837;51.076;3.578;2022-08-18T16:28:49;25.20;59.30
59977;DHT22;45837;51.076;3.578;2022-08-18T16:31:16;25.10;59.30
59977;DHT22;45837;51.076;3.578;2022-08-18T16:33:44;25.20;59.30
59977;DHT22;45837;51.076;3.578;2022-08-18T16:36:13;25.20;59.20
59977;DHT22;45837;51.076;3.578;2022-08-18T16:38:39;25.20;59.10
59977;DHT22;45837;51.076;3.578;2022-08-18T16:41:10;25.30;58.90
59977;DHT22;45837;51.076;3.578;2022-08-18T16:43:44;25.30;58.90
59977;DHT22;45837;51.076;3.578;2022-08-18T16:46:13;25.20;58.80
59977;DHT22;45837;51.076;3.578;2022-08-18T16:48:42;25.30;58.90
59977;DHT22;45837;51.076;3.578;2022-08-18T16:51:18;25.30;58.70
59977;DHT22;45837;51.076;3.578;2022-08-18T16:53:45;25.30;58.70
59977;DHT22;45837;51.076;3.578;2022-08-18T16:56:14;25.30;58.70
59977;DHT22;45837;51.076;3.578;2022-08-18T16:58:40;25.30;58.80
59977;DHT22;45837;51.076;3.578;2022-08-18T17:01:25;25.40;58.80
59977;DHT22;45837;51.076;3.578;2022-08-18T17:04:11;25.30;58.60
59977;DHT22;45837;51.076;3.578;2022-08-18T17:06:39;25.30;58.70
59977;DHT22;45837;51.076;3.578;2022-08-18T17:09:06;25.40;58.60
59977;DHT22;45837;51.076;3.578;2022-08-18T17:11:32;25.30;58.50
59977;DHT22;45837;51.076;3.578;2022-08-18T17:13:59;25.40;58.40
59977;DHT22;45837;51.076;3.578;2022-08-18T17:16:27;25.40;58.50
59977;DHT22;45837;51.076;3.578;2022-08-18T17:18:54;25.40;58.20
59977;DHT22;45837;51.076;3.578;2022-08-18T17:21:23;25.40;58.10
59977;DHT22;45837;51.076;3.578;2022-08-18T17:23:52;25.40;58.30
59977;DHT22;45837;51.076;3.578;2022-08-18T17:26:43;25.40;58.30
59977;DHT22;45837;51.076;3.578;2022-08-18T17:29:25;25.40;58.30
59977;DHT22;45837;51.076;3.578;2022-08-18T17:32:10;25.40;58.20
59977;DHT22;45837;51.076;3.578;2022-08-18T17:34:38;25.40;58.20
59977;DHT22;45837;51.076;3.578;2022-08-18T17:37:08;25.40;58.20
59977;DHT22;45837;51.076;3.578;2022-08-18T17:39:39;25.50;58.20
59977;DHT22;45837;51.076;3.578;2022-08-18T17:42:08;25.50;58.10
59977;DHT22;45837;51.076;3.578;2022-08-18T17:44:57;25.50;58.10
59977;DHT22;45837;51.076;3.578;2022-08-18T17:50:27;25.40;58.10
59977;DHT22;45837;51.076;3.578;2022-08-18T17:53:13;25.40;58.10
59977;DHT22;45837;51.076;3.578;2022-08-18T17:55:54;25.40;58.20
59977;DHT22;45837;51.076;3.578;2022-08-18T17:58:41;25.40;58.10
59977;DHT22;45837;51.076;3.578;2022-08-18T18:01:10;25.40;58.20
59977;DHT22;45837;51.076;3.578;2022-08-18T18:03:37;25.40;58.10
59977;DHT22;45837;51.076;3.578;2022-08-18T18:06:17;25.40;58.00
59977;DHT22;45837;51.076;3.578;2022-08-18T18:08:58;25.50;57.90
59977;DHT22;45837;51.076;3.578;2022-08-18T18:11:31;25.50;57.80
59977;DHT22;45837;51.076;3.578;2022-08-18T18:13:59;25.50;57.80
59977;DHT22;45837;51.076;3.578;2022-08-18T18:19:10;25.50;57.60
59977;DHT22;45837;51.076;3.578;2022-08-18T18:21:37;25.50;57.60
59977;DHT22;45837;51.076;3.578;2022-08-18T18:26:37;25.40;57.50
59977;DHT22;45837;51.076;3.578;2022-08-18T18:29:26;25.40;57.40